Skip Navigation Links Skip Navigation Links

Current Weather

Dobbins Air Reserve Base, Marietta, Ga.

For information only: do not use for flight planning or navigation.
Latest weather
Observation time Tuesday, January 26, 2021 2:56 PM EST
Local time Tuesday, January 26, 2021 7:36 PM EST
Flight conditions Visual Meteorological Conditions
Winds
Wind direction West-Southwest (250°)
Wind speed 8 mph
Visibility 10 mi.
Sky condition
Ceiling 10,000 ft. broken clouds
Cloud layer broken clouds 10,000 ft.
Temperature 65°F
Dewpoint 46°F
Altimeter 29.90 in.Hg
Derived measurements
Relative humidity 49%
Density altitude 1667 ft.
Sea-level pressure 29.88 in.Hg
Remarks
System requires maintenance.
Automated weather observing station with precipitation discriminator.
METAR KMGE 261956Z 25007KT 10SM BKN100 19/08 A2990 RMK AO2A SLP120 T01860077 $

Settings

Location code

InnerDrive.Weather 4.0.6770.0 Release CLR 4.0.30319.42000
Copyright ©2018 Inner Drive Technology. All rights reserved. Portions Copyright ©1986-2018 David Braverman.

Find weather

Site navigation


Skip Navigation Links

Place info

Page info

PayPal - The safer, easier way to pay online!

Return home.

Copyright ©2021 Inner Drive Technology. Purveyors of fine, hand-crafted computer software. Page printed 2021-01-27T00:36:50 UTC.